sensor_id;sensor_type;location;lat;lon;timestamp;pressure;altitude;pressure_sealevel;temperature
69435;BMP180;56625;54.322;18.582;2024-02-15T00:00:38;101069.40;;;5.80
69435;BMP180;56625;54.322;18.582;2024-02-15T00:03:27;101074.00;;;5.80
69435;BMP180;56625;54.322;18.582;2024-02-15T00:05:55;101068.60;;;5.80
69435;BMP180;56625;54.322;18.582;2024-02-15T00:08:23;101071.00;;;5.80
69435;BMP180;56625;54.322;18.582;2024-02-15T00:10:53;101070.00;;;5.80
69435;BMP180;56625;54.322;18.582;2024-02-15T00:13:21;101071.40;;;5.80
69435;BMP180;56625;54.322;18.582;2024-02-15T00:15:50;101068.00;;;5.84
69435;BMP180;56625;54.322;18.582;2024-02-15T00:18:19;101062.80;;;5.82
69435;BMP180;56625;54.322;18.582;2024-02-15T00:20:47;101061.20;;;5.86
69435;BMP180;56625;54.322;18.582;2024-02-15T00:23:16;101057.60;;;5.90
69435;BMP180;56625;54.322;18.582;2024-02-15T00:25:44;101059.40;;;5.90
69435;BMP180;56625;54.322;18.582;2024-02-15T00:28:13;101060.60;;;5.90
69435;BMP180;56625;54.322;18.582;2024-02-15T00:30:41;101055.40;;;5.90
69435;BMP180;56625;54.322;18.582;2024-02-15T00:33:09;101053.00;;;5.90
69435;BMP180;56625;54.322;18.582;2024-02-15T00:35:38;101046.40;;;5.90
69435;BMP180;56625;54.322;18.582;2024-02-15T00:38:07;101052.20;;;5.90
69435;BMP180;56625;54.322;18.582;2024-02-15T00:40:36;101046.80;;;5.90
69435;BMP180;56625;54.322;18.582;2024-02-15T00:43:04;101047.20;;;5.90
69435;BMP180;56625;54.322;18.582;2024-02-15T00:45:32;101048.20;;;5.90
69435;BMP180;56625;54.322;18.582;2024-02-15T00:48:01;101044.00;;;5.88
69435;BMP180;56625;54.322;18.582;2024-02-15T00:50:29;101047.80;;;5.86
69435;BMP180;56625;54.322;18.582;2024-02-15T00:52:58;101044.80;;;5.84
69435;BMP180;56625;54.322;18.582;2024-02-15T00:55:26;101047.20;;;5.82
69435;BMP180;56625;54.322;18.582;2024-02-15T00:57:54;101041.60;;;5.80
69435;BMP180;56625;54.322;18.582;2024-02-15T01:00:22;101039.00;;;5.82
69435;BMP180;56625;54.322;18.582;2024-02-15T01:02:50;101045.00;;;5.80
69435;BMP180;56625;54.322;18.582;2024-02-15T01:05:19;101048.20;;;5.80
69435;BMP180;56625;54.322;18.582;2024-02-15T01:07:48;101047.80;;;5.80
69435;BMP180;56625;54.322;18.582;2024-02-15T01:10:21;101050.40;;;5.80
69435;BMP180;56625;54.322;18.582;2024-02-15T01:12:49;101049.00;;;5.80
69435;BMP180;56625;54.322;18.582;2024-02-15T01:15:17;101049.80;;;5.80
69435;BMP180;56625;54.322;18.582;2024-02-15T01:17:48;101053.00;;;5.80
69435;BMP180;56625;54.322;18.582;2024-02-15T01:20:17;101048.40;;;5.80
69435;BMP180;56625;54.322;18.582;2024-02-15T01:22:45;101047.60;;;5.80
69435;BMP180;56625;54.322;18.582;2024-02-15T01:25:14;101049.20;;;5.80
69435;BMP180;56625;54.322;18.582;2024-02-15T01:27:43;101050.00;;;5.80
69435;BMP180;56625;54.322;18.582;2024-02-15T01:30:12;101047.20;;;5.80
69435;BMP180;56625;54.322;18.582;2024-02-15T01:32:40;101041.80;;;5.80
69435;BMP180;56625;54.322;18.582;2024-02-15T01:35:10;101042.00;;;5.80
69435;BMP180;56625;54.322;18.582;2024-02-15T01:37:38;101038.60;;;5.80
69435;BMP180;56625;54.322;18.582;2024-02-15T01:40:07;101038.40;;;5.78
69435;BMP180;56625;54.322;18.582;2024-02-15T01:42:35;101032.80;;;5.72
69435;BMP180;56625;54.322;18.582;2024-02-15T01:45:05;101032.80;;;5.70
69435;BMP180;56625;54.322;18.582;2024-02-15T01:47:33;101032.00;;;5.70
69435;BMP180;56625;54.322;18.582;2024-02-15T01:50:02;101029.60;;;5.72
69435;BMP180;56625;54.322;18.582;2024-02-15T01:52:30;101026.40;;;5.72
69435;BMP180;56625;54.322;18.582;2024-02-15T01:55:02;101023.80;;;5.72
69435;BMP180;56625;54.322;18.582;2024-02-15T01:57:36;101025.80;;;5.80
69435;BMP180;56625;54.322;18.582;2024-02-15T02:00:09;101027.00;;;5.80
69435;BMP180;56625;54.322;18.582;2024-02-15T02:02:40;101017.20;;;5.80
69435;BMP180;56625;54.322;18.582;2024-02-15T02:05:09;101023.60;;;5.80
69435;BMP180;56625;54.322;18.582;2024-02-15T02:07:38;101019.20;;;5.80
69435;BMP180;56625;54.322;18.582;2024-02-15T02:10:07;101016.60;;;5.80
69435;BMP180;56625;54.322;18.582;2024-02-15T02:12:38;101022.00;;;5.80
69435;BMP180;56625;54.322;18.582;2024-02-15T02:15:08;101021.80;;;5.80
69435;BMP180;56625;54.322;18.582;2024-02-15T02:17:37;101016.80;;;5.80
69435;BMP180;56625;54.322;18.582;2024-02-15T02:20:06;101021.00;;;5.70
69435;BMP180;56625;54.322;18.582;2024-02-15T02:22:37;101022.80;;;5.70
69435;BMP180;56625;54.322;18.582;2024-02-15T02:25:08;101019.40;;;5.70
69435;BMP180;56625;54.322;18.582;2024-02-15T02:27:36;101016.20;;;5.76
69435;BMP180;56625;54.322;18.582;2024-02-15T02:30:12;101009.00;;;5.72
69435;BMP180;56625;54.322;18.582;2024-02-15T02:32:48;101012.40;;;5.76
69435;BMP180;56625;54.322;18.582;2024-02-15T02:35:16;101008.20;;;5.74
69435;BMP180;56625;54.322;18.582;2024-02-15T02:37:44;101001.80;;;5.72
69435;BMP180;56625;54.322;18.582;2024-02-15T02:40:13;101001.20;;;5.74
69435;BMP180;56625;54.322;18.582;2024-02-15T02:42:55;101004.20;;;5.70
69435;BMP180;56625;54.322;18.582;2024-02-15T02:45:29;101000.60;;;5.70
69435;BMP180;56625;54.322;18.582;2024-02-15T02:47:57;101004.60;;;5.70
69435;BMP180;56625;54.322;18.582;2024-02-15T02:50:25;101004.00;;;5.70
69435;BMP180;56625;54.322;18.582;2024-02-15T02:52:53;101001.60;;;5.70
69435;BMP180;56625;54.322;18.582;2024-02-15T02:55:22;101003.60;;;5.70
69435;BMP180;56625;54.322;18.582;2024-02-15T02:57:51;101000.40;;;5.70
69435;BMP180;56625;54.322;18.582;2024-02-15T03:00:21;100997.00;;;5.70
69435;BMP180;56625;54.322;18.582;2024-02-15T03:02:50;100996.20;;;5.70
69435;BMP180;56625;54.322;18.582;2024-02-15T03:05:19;100998.80;;;5.70
69435;BMP180;56625;54.322;18.582;2024-02-15T03:07:49;101006.60;;;5.70
69435;BMP180;56625;54.322;18.582;2024-02-15T03:10:20;101002.60;;;5.70
69435;BMP180;56625;54.322;18.582;2024-02-15T03:12:48;101002.80;;;5.70
69435;BMP180;56625;54.322;18.582;2024-02-15T03:15:17;101003.60;;;5.70
69435;BMP180;56625;54.322;18.582;2024-02-15T03:17:48;100999.60;;;5.70
69435;BMP180;56625;54.322;18.582;2024-02-15T03:20:17;101000.40;;;5.70
69435;BMP180;56625;54.322;18.582;2024-02-15T03:22:54;101002.20;;;5.70
69435;BMP180;56625;54.322;18.582;2024-02-15T03:25:25;101003.40;;;5.70
69435;BMP180;56625;54.322;18.582;2024-02-15T03:27:59;101004.60;;;5.70
69435;BMP180;56625;54.322;18.582;2024-02-15T03:30:32;101007.20;;;5.70
69435;BMP180;56625;54.322;18.582;2024-02-15T03:33:04;101003.40;;;5.70
69435;BMP180;56625;54.322;18.582;2024-02-15T03:35:35;101008.00;;;5.70
69435;BMP180;56625;54.322;18.582;2024-02-15T03:38:03;101005.60;;;5.70
69435;BMP180;56625;54.322;18.582;2024-02-15T03:40:31;101011.60;;;5.70
69435;BMP180;56625;54.322;18.582;2024-02-15T03:43:00;101004.40;;;5.70
69435;BMP180;56625;54.322;18.582;2024-02-15T03:45:29;100998.80;;;5.72
69435;BMP180;56625;54.322;18.582;2024-02-15T03:47:57;101003.00;;;5.76
69435;BMP180;56625;54.322;18.582;2024-02-15T03:50:25;100998.40;;;5.80
69435;BMP180;56625;54.322;18.582;2024-02-15T03:52:54;100993.60;;;5.80
69435;BMP180;56625;54.322;18.582;2024-02-15T03:55:22;100998.80;;;5.80
69435;BMP180;56625;54.322;18.582;2024-02-15T03:57:53;100999.20;;;5.80
69435;BMP180;56625;54.322;18.582;2024-02-15T04:00:24;100999.60;;;5.80
69435;BMP180;56625;54.322;18.582;2024-02-15T04:02:53;100994.40;;;5.80
69435;BMP180;56625;54.322;18.582;2024-02-15T04:05:23;100994.40;;;5.80
69435;BMP180;56625;54.322;18.582;2024-02-15T04:07:51;100998.00;;;5.80
69435;BMP180;56625;54.322;18.582;2024-02-15T04:10:21;100996.80;;;5.80
69435;BMP180;56625;54.322;18.582;2024-02-15T04:12:50;100993.20;;;5.84
69435;BMP180;56625;54.322;18.582;2024-02-15T04:15:18;100997.00;;;5.90
69435;BMP180;56625;54.322;18.582;2024-02-15T04:17:47;100994.00;;;5.90
69435;BMP180;56625;54.322;18.582;2024-02-15T04:20:15;100993.60;;;5.90
69435;BMP180;56625;54.322;18.582;2024-02-15T04:22:45;100992.20;;;5.90
69435;BMP180;56625;54.322;18.582;2024-02-15T04:25:16;100998.40;;;5.90
69435;BMP180;56625;54.322;18.582;2024-02-15T04:27:46;100989.20;;;5.90
69435;BMP180;56625;54.322;18.582;2024-02-15T04:30:15;100989.20;;;5.90
69435;BMP180;56625;54.322;18.582;2024-02-15T04:32:45;100988.80;;;5.90
69435;BMP180;56625;54.322;18.582;2024-02-15T04:35:13;100988.60;;;5.92
69435;BMP180;56625;54.322;18.582;2024-02-15T04:37:42;100992.40;;;6.00
69435;BMP180;56625;54.322;18.582;2024-02-15T04:40:11;100991.40;;;6.00
69435;BMP180;56625;54.322;18.582;2024-02-15T04:42:42;100989.60;;;6.00
69435;BMP180;56625;54.322;18.582;2024-02-15T04:45:13;100986.60;;;6.00
69435;BMP180;56625;54.322;18.582;2024-02-15T04:47:45;100988.20;;;6.00
69435;BMP180;56625;54.322;18.582;2024-02-15T04:50:17;100990.00;;;6.00
69435;BMP180;56625;54.322;18.582;2024-02-15T04:52:46;100992.00;;;6.00
69435;BMP180;56625;54.322;18.582;2024-02-15T04:55:16;100991.60;;;6.00
69435;BMP180;56625;54.322;18.582;2024-02-15T04:57:46;100990.40;;;6.00
69435;BMP180;56625;54.322;18.582;2024-02-15T05:00:17;100988.20;;;6.00
69435;BMP180;56625;54.322;18.582;2024-02-15T05:02:50;100992.40;;;6.00
69435;BMP180;56625;54.322;18.582;2024-02-15T05:05:20;100988.00;;;6.00
69435;BMP180;56625;54.322;18.582;2024-02-15T05:07:48;100988.00;;;6.00
69435;BMP180;56625;54.322;18.582;2024-02-15T05:10:19;100989.40;;;6.00
69435;BMP180;56625;54.322;18.582;2024-02-15T05:12:48;100991.00;;;6.00
69435;BMP180;56625;54.322;18.582;2024-02-15T05:15:16;100987.40;;;6.02
69435;BMP180;56625;54.322;18.582;2024-02-15T05:17:47;100985.40;;;6.10
69435;BMP180;56625;54.322;18.582;2024-02-15T05:20:16;100986.20;;;6.10
69435;BMP180;56625;54.322;18.582;2024-02-15T05:22:45;100987.00;;;6.10
69435;BMP180;56625;54.322;18.582;2024-02-15T05:25:19;100990.40;;;6.10
69435;BMP180;56625;54.322;18.582;2024-02-15T05:27:54;100995.40;;;6.10
69435;BMP180;56625;54.322;18.582;2024-02-15T05:30:25;100994.20;;;6.10
69435;BMP180;56625;54.322;18.582;2024-02-15T05:32:54;100999.80;;;6.10
69435;BMP180;56625;54.322;18.582;2024-02-15T05:35:24;100993.20;;;6.10
69435;BMP180;56625;54.322;18.582;2024-02-15T05:37:53;100996.00;;;6.10
69435;BMP180;56625;54.322;18.582;2024-02-15T05:40:22;100994.60;;;6.10
69435;BMP180;56625;54.322;18.582;2024-02-15T05:42:55;100995.80;;;6.10
69435;BMP180;56625;54.322;18.582;2024-02-15T05:47:53;100993.20;;;6.20
69435;BMP180;56625;54.322;18.582;2024-02-15T05:50:23;100999.60;;;6.20
69435;BMP180;56625;54.322;18.582;2024-02-15T05:52:53;100996.80;;;6.20
69435;BMP180;56625;54.322;18.582;2024-02-15T05:55:24;101005.80;;;6.22
69435;BMP180;56625;54.322;18.582;2024-02-15T05:57:54;101005.80;;;6.30
69435;BMP180;56625;54.322;18.582;2024-02-15T06:00:22;101005.20;;;6.30
69435;BMP180;56625;54.322;18.582;2024-02-15T06:02:51;101006.00;;;6.30
69435;BMP180;56625;54.322;18.582;2024-02-15T06:05:21;101005.80;;;6.30
69435;BMP180;56625;54.322;18.582;2024-02-15T06:07:50;101012.40;;;6.30
69435;BMP180;56625;54.322;18.582;2024-02-15T06:10:18;101012.60;;;6.30
69435;BMP180;56625;54.322;18.582;2024-02-15T06:12:46;101015.60;;;6.30
69435;BMP180;56625;54.322;18.582;2024-02-15T06:15:14;101013.80;;;6.40
69435;BMP180;56625;54.322;18.582;2024-02-15T06:17:44;101016.80;;;6.40
69435;BMP180;56625;54.322;18.582;2024-02-15T06:20:14;101017.80;;;6.40
69435;BMP180;56625;54.322;18.582;2024-02-15T06:22:42;101025.00;;;6.40
69435;BMP180;56625;54.322;18.582;2024-02-15T06:25:10;101025.60;;;6.40
69435;BMP180;56625;54.322;18.582;2024-02-15T06:27:39;101022.20;;;6.40
69435;BMP180;56625;54.322;18.582;2024-02-15T06:30:12;101024.40;;;6.40
69435;BMP180;56625;54.322;18.582;2024-02-15T06:32:59;101022.40;;;6.40
69435;BMP180;56625;54.322;18.582;2024-02-15T06:35:57;101022.60;;;6.40
69435;BMP180;56625;54.322;18.582;2024-02-15T06:38:44;101025.00;;;6.40
69435;BMP180;56625;54.322;18.582;2024-02-15T06:41:31;101022.60;;;6.42
69435;BMP180;56625;54.322;18.582;2024-02-15T06:43:59;101021.40;;;6.50
69435;BMP180;56625;54.322;18.582;2024-02-15T06:46:27;101028.40;;;6.50
69435;BMP180;56625;54.322;18.582;2024-02-15T06:48:55;101027.80;;;6.50
69435;BMP180;56625;54.322;18.582;2024-02-15T06:51:26;101026.00;;;6.56
69435;BMP180;56625;54.322;18.582;2024-02-15T06:53:54;101027.80;;;6.50
69435;BMP180;56625;54.322;18.582;2024-02-15T06:56:24;101029.40;;;6.50
69435;BMP180;56625;54.322;18.582;2024-02-15T06:58:52;101024.40;;;6.52
69435;BMP180;56625;54.322;18.582;2024-02-15T07:01:24;101020.40;;;6.60
69435;BMP180;56625;54.322;18.582;2024-02-15T07:03:53;101022.60;;;6.60
69435;BMP180;56625;54.322;18.582;2024-02-15T07:06:26;101027.20;;;6.60
69435;BMP180;56625;54.322;18.582;2024-02-15T07:08:55;101024.80;;;6.60
69435;BMP180;56625;54.322;18.582;2024-02-15T07:11:25;101023.80;;;6.60
69435;BMP180;56625;54.322;18.582;2024-02-15T07:13:53;101027.40;;;6.68
69435;BMP180;56625;54.322;18.582;2024-02-15T07:16:23;101024.40;;;6.70
69435;BMP180;56625;54.322;18.582;2024-02-15T07:18:51;101035.20;;;6.70
69435;BMP180;56625;54.322;18.582;2024-02-15T07:21:20;101038.00;;;6.70
69435;BMP180;56625;54.322;18.582;2024-02-15T07:23:55;101033.60;;;6.70
69435;BMP180;56625;54.322;18.582;2024-02-15T07:26:24;101042.60;;;6.70
69435;BMP180;56625;54.322;18.582;2024-02-15T07:28:54;101046.80;;;6.80
69435;BMP180;56625;54.322;18.582;2024-02-15T07:31:27;101045.00;;;6.80
69435;BMP180;56625;54.322;18.582;2024-02-15T07:33:56;101046.00;;;6.80
69435;BMP180;56625;54.322;18.582;2024-02-15T07:36:25;101040.80;;;6.80
69435;BMP180;56625;54.322;18.582;2024-02-15T07:38:54;101044.00;;;6.90
69435;BMP180;56625;54.322;18.582;2024-02-15T07:41:30;101044.20;;;6.90
69435;BMP180;56625;54.322;18.582;2024-02-15T07:44:01;101048.80;;;6.90
69435;BMP180;56625;54.322;18.582;2024-02-15T07:46:30;101045.40;;;7.00
69435;BMP180;56625;54.322;18.582;2024-02-15T07:48:58;101041.80;;;7.00
69435;BMP180;56625;54.322;18.582;2024-02-15T07:51:27;101038.00;;;7.04
69435;BMP180;56625;54.322;18.582;2024-02-15T07:53:56;101037.00;;;7.10
69435;BMP180;56625;54.322;18.582;2024-02-15T07:56:24;101044.40;;;7.18
69435;BMP180;56625;54.322;18.582;2024-02-15T07:58:52;101046.00;;;7.20
69435;BMP180;56625;54.322;18.582;2024-02-15T08:01:21;101044.60;;;7.20
69435;BMP180;56625;54.322;18.582;2024-02-15T08:03:52;101043.60;;;7.22
69435;BMP180;56625;54.322;18.582;2024-02-15T08:06:23;101049.00;;;7.26
69435;BMP180;56625;54.322;18.582;2024-02-15T08:08:56;101046.60;;;7.30
69435;BMP180;56625;54.322;18.582;2024-02-15T08:11:25;101041.40;;;7.30
69435;BMP180;56625;54.322;18.582;2024-02-15T08:13:54;101041.60;;;7.30
69435;BMP180;56625;54.322;18.582;2024-02-15T08:16:27;101032.00;;;7.38
69435;BMP180;56625;54.322;18.582;2024-02-15T08:18:55;101038.00;;;7.40
69435;BMP180;56625;54.322;18.582;2024-02-15T08:21:30;101044.80;;;7.50
69435;BMP180;56625;54.322;18.582;2024-02-15T08:24:05;101039.60;;;7.50
69435;BMP180;56625;54.322;18.582;2024-02-15T08:26:39;101038.40;;;7.60
69435;BMP180;56625;54.322;18.582;2024-02-15T08:29:07;101036.80;;;7.60
69435;BMP180;56625;54.322;18.582;2024-02-15T08:31:35;101033.60;;;7.66
69435;BMP180;56625;54.322;18.582;2024-02-15T08:34:03;101028.20;;;7.70
69435;BMP180;56625;54.322;18.582;2024-02-15T08:36:38;101030.00;;;7.80
69435;BMP180;56625;54.322;18.582;2024-02-15T08:39:08;101032.40;;;7.80
69435;BMP180;56625;54.322;18.582;2024-02-15T08:41:40;101031.80;;;7.90
69435;BMP180;56625;54.322;18.582;2024-02-15T08:44:08;101033.40;;;8.00
69435;BMP180;56625;54.322;18.582;2024-02-15T08:46:39;101036.80;;;8.00
69435;BMP180;56625;54.322;18.582;2024-02-15T08:49:08;101039.20;;;8.00
69435;BMP180;56625;54.322;18.582;2024-02-15T08:51:36;101036.00;;;8.00
69435;BMP180;56625;54.322;18.582;2024-02-15T08:54:05;101036.00;;;8.08
69435;BMP180;56625;54.322;18.582;2024-02-15T08:56:35;101035.60;;;8.10
69435;BMP180;56625;54.322;18.582;2024-02-15T08:59:03;101035.60;;;8.10
69435;BMP180;56625;54.322;18.582;2024-02-15T09:01:31;101037.80;;;8.20
69435;BMP180;56625;54.322;18.582;2024-02-15T09:04:01;101037.20;;;8.20
69435;BMP180;56625;54.322;18.582;2024-02-15T09:06:30;101042.00;;;8.22
69435;BMP180;56625;54.322;18.582;2024-02-15T09:08:58;101041.00;;;8.30
69435;BMP180;56625;54.322;18.582;2024-02-15T09:11:30;101040.20;;;8.40
69435;BMP180;56625;54.322;18.582;2024-02-15T09:13:58;101041.40;;;8.40
69435;BMP180;56625;54.322;18.582;2024-02-15T09:16:26;101047.20;;;8.40
69435;BMP180;56625;54.322;18.582;2024-02-15T09:18:54;101048.60;;;8.44
69435;BMP180;56625;54.322;18.582;2024-02-15T09:21:23;101048.20;;;8.50
69435;BMP180;56625;54.322;18.582;2024-02-15T09:23:53;101056.00;;;8.50
69435;BMP180;56625;54.322;18.582;2024-02-15T09:26:21;101047.00;;;8.52
69435;BMP180;56625;54.322;18.582;2024-02-15T09:28:50;101049.20;;;8.60
69435;BMP180;56625;54.322;18.582;2024-02-15T09:31:18;101051.00;;;8.60
69435;BMP180;56625;54.322;18.582;2024-02-15T09:33:46;101047.00;;;8.60
69435;BMP180;56625;54.322;18.582;2024-02-15T09:36:15;101045.00;;;8.62
69435;BMP180;56625;54.322;18.582;2024-02-15T09:38:44;101041.20;;;8.70
69435;BMP180;56625;54.322;18.582;2024-02-15T09:41:12;101047.20;;;8.70
69435;BMP180;56625;54.322;18.582;2024-02-15T09:43:41;101048.00;;;8.80
69435;BMP180;56625;54.322;18.582;2024-02-15T09:46:09;101048.00;;;8.80
69435;BMP180;56625;54.322;18.582;2024-02-15T09:48:39;101053.00;;;8.82
69435;BMP180;56625;54.322;18.582;2024-02-15T09:51:11;101055.60;;;8.80
69435;BMP180;56625;54.322;18.582;2024-02-15T09:53:41;101063.40;;;8.90
69435;BMP180;56625;54.322;18.582;2024-02-15T09:56:10;101058.20;;;8.90
69435;BMP180;56625;54.322;18.582;2024-02-15T09:58:39;101058.40;;;9.00
69435;BMP180;56625;54.322;18.582;2024-02-15T10:01:10;101057.80;;;9.00
69435;BMP180;56625;54.322;18.582;2024-02-15T10:03:39;101059.80;;;9.10
69435;BMP180;56625;54.322;18.582;2024-02-15T10:06:11;101063.20;;;9.10
69435;BMP180;56625;54.322;18.582;2024-02-15T10:08:40;101069.20;;;9.10
69435;BMP180;56625;54.322;18.582;2024-02-15T10:11:09;101068.40;;;9.10
69435;BMP180;56625;54.322;18.582;2024-02-15T10:13:38;101060.60;;;9.10
69435;BMP180;56625;54.322;18.582;2024-02-15T10:16:19;101064.80;;;9.10
69435;BMP180;56625;54.322;18.582;2024-02-15T10:18:47;101058.60;;;9.10
69435;BMP180;56625;54.322;18.582;2024-02-15T10:21:27;101060.00;;;9.16
69435;BMP180;56625;54.322;18.582;2024-02-15T10:24:06;101057.80;;;9.20
69435;BMP180;56625;54.322;18.582;2024-02-15T10:26:36;101063.80;;;9.20
69435;BMP180;56625;54.322;18.582;2024-02-15T10:29:11;101064.60;;;9.22
69435;BMP180;56625;54.322;18.582;2024-02-15T10:31:53;101064.60;;;9.30
69435;BMP180;56625;54.322;18.582;2024-02-15T10:34:21;101070.20;;;9.30
69435;BMP180;56625;54.322;18.582;2024-02-15T10:36:51;101059.60;;;9.20
69435;BMP180;56625;54.322;18.582;2024-02-15T10:39:19;101057.00;;;9.20
69435;BMP180;56625;54.322;18.582;2024-02-15T10:41:52;101058.20;;;9.30
69435;BMP180;56625;54.322;18.582;2024-02-15T10:44:24;101054.20;;;9.30
69435;BMP180;56625;54.322;18.582;2024-02-15T10:46:53;101051.20;;;9.28
69435;BMP180;56625;54.322;18.582;2024-02-15T10:49:24;101048.80;;;9.20
69435;BMP180;56625;54.322;18.582;2024-02-15T10:52:01;101049.00;;;9.28
69435;BMP180;56625;54.322;18.582;2024-02-15T10:54:57;101054.40;;;9.30
69435;BMP180;56625;54.322;18.582;2024-02-15T10:57:31;101056.20;;;9.40
69435;BMP180;56625;54.322;18.582;2024-02-15T11:00:02;101052.60;;;9.36
69435;BMP180;56625;54.322;18.582;2024-02-15T11:03:07;101047.40;;;9.36
69435;BMP180;56625;54.322;18.582;2024-02-15T11:05:37;101049.40;;;9.38
69435;BMP180;56625;54.322;18.582;2024-02-15T11:08:10;101044.40;;;9.40
69435;BMP180;56625;54.322;18.582;2024-02-15T11:10:40;101040.40;;;9.40
69435;BMP180;56625;54.322;18.582;2024-02-15T11:13:12;101033.00;;;9.40
69435;BMP180;56625;54.322;18.582;2024-02-15T11:15:44;101037.60;;;9.50
69435;BMP180;56625;54.322;18.582;2024-02-15T11:18:48;101032.80;;;9.50
69435;BMP180;56625;54.322;18.582;2024-02-15T11:21:53;101032.00;;;9.50
69435;BMP180;56625;54.322;18.582;2024-02-15T11:24:28;101035.80;;;9.50
69435;BMP180;56625;54.322;18.582;2024-02-15T11:27:02;101030.80;;;9.52
69435;BMP180;56625;54.322;18.582;2024-02-15T11:32:50;101025.80;;;9.60
69435;BMP180;56625;54.322;18.582;2024-02-15T11:35:26;101023.40;;;9.60
69435;BMP180;56625;54.322;18.582;2024-02-15T11:37:59;101015.00;;;9.60
69435;BMP180;56625;54.322;18.582;2024-02-15T11:46:18;101008.20;;;9.70
69435;BMP180;56625;54.322;18.582;2024-02-15T11:48:48;101011.40;;;9.80
69435;BMP180;56625;54.322;18.582;2024-02-15T11:51:36;101010.00;;;9.90
69435;BMP180;56625;54.322;18.582;2024-02-15T11:54:20;101010.60;;;10.00
69435;BMP180;56625;54.322;18.582;2024-02-15T11:56:56;101009.60;;;10.00
69435;BMP180;56625;54.322;18.582;2024-02-15T11:59:44;101008.80;;;10.10
69435;BMP180;56625;54.322;18.582;2024-02-15T12:02:41;101008.60;;;10.20
69435;BMP180;56625;54.322;18.582;2024-02-15T12:05:28;101005.20;;;10.44
69435;BMP180;56625;54.322;18.582;2024-02-15T12:08:15;101003.00;;;10.70
69435;BMP180;56625;54.322;18.582;2024-02-15T12:11:02;101003.60;;;10.80
69435;BMP180;56625;54.322;18.582;2024-02-15T12:13:51;100996.00;;;10.90
69435;BMP180;56625;54.322;18.582;2024-02-15T12:16:38;101000.80;;;11.00
69435;BMP180;56625;54.322;18.582;2024-02-15T12:19:25;100999.00;;;11.00
69435;BMP180;56625;54.322;18.582;2024-02-15T12:21:55;100996.40;;;11.04
69435;BMP180;56625;54.322;18.582;2024-02-15T12:24:25;100998.00;;;11.10
69435;BMP180;56625;54.322;18.582;2024-02-15T12:27:04;100993.00;;;11.20
69435;BMP180;56625;54.322;18.582;2024-02-15T12:29:34;100996.40;;;11.30
69435;BMP180;56625;54.322;18.582;2024-02-15T12:32:03;100995.80;;;11.30
69435;BMP180;56625;54.322;18.582;2024-02-15T12:34:33;100993.80;;;11.30
69435;BMP180;56625;54.322;18.582;2024-02-15T12:37:05;100997.80;;;11.20
69435;BMP180;56625;54.322;18.582;2024-02-15T12:39:37;100994.20;;;11.20
69435;BMP180;56625;54.322;18.582;2024-02-15T12:42:06;100996.20;;;11.20
69435;BMP180;56625;54.322;18.582;2024-02-15T12:44:35;100998.40;;;11.20
69435;BMP180;56625;54.322;18.582;2024-02-15T12:47:04;100996.20;;;11.20
69435;BMP180;56625;54.322;18.582;2024-02-15T12:49:33;100996.80;;;11.20
69435;BMP180;56625;54.322;18.582;2024-02-15T12:52:38;100992.20;;;11.18
69435;BMP180;56625;54.322;18.582;2024-02-15T12:55:22;100991.20;;;11.20
69435;BMP180;56625;54.322;18.582;2024-02-15T12:57:55;100993.00;;;11.20
69435;BMP180;56625;54.322;18.582;2024-02-15T13:00:27;100993.80;;;11.10
69435;BMP180;56625;54.322;18.582;2024-02-15T13:03:04;101000.00;;;11.10
69435;BMP180;56625;54.322;18.582;2024-02-15T13:05:32;101002.60;;;11.08
69435;BMP180;56625;54.322;18.582;2024-02-15T13:08:00;101005.20;;;11.00
69435;BMP180;56625;54.322;18.582;2024-02-15T13:10:38;101008.20;;;11.00
69435;BMP180;56625;54.322;18.582;2024-02-15T13:13:07;101003.60;;;10.90
69435;BMP180;56625;54.322;18.582;2024-02-15T13:15:38;101000.40;;;10.90
69435;BMP180;56625;54.322;18.582;2024-02-15T13:18:07;100998.80;;;11.00
69435;BMP180;56625;54.322;18.582;2024-02-15T13:20:39;100996.80;;;11.00
69435;BMP180;56625;54.322;18.582;2024-02-15T13:23:10;100996.40;;;11.10
69435;BMP180;56625;54.322;18.582;2024-02-15T13:25:53;100994.80;;;11.10
69435;BMP180;56625;54.322;18.582;2024-02-15T13:28:21;100997.60;;;11.10
69435;BMP180;56625;54.322;18.582;2024-02-15T13:30:49;100993.20;;;11.20
69435;BMP180;56625;54.322;18.582;2024-02-15T13:33:18;100991.00;;;11.20
69435;BMP180;56625;54.322;18.582;2024-02-15T13:35:46;100990.80;;;11.20
69435;BMP180;56625;54.322;18.582;2024-02-15T13:38:15;100989.80;;;11.20
69435;BMP180;56625;54.322;18.582;2024-02-15T13:40:52;100990.00;;;11.20
69435;BMP180;56625;54.322;18.582;2024-02-15T13:43:24;100991.00;;;11.20
69435;BMP180;56625;54.322;18.582;2024-02-15T13:45:56;100989.20;;;11.20
69435;BMP180;56625;54.322;18.582;2024-02-15T13:48:33;100988.00;;;11.20
69435;BMP180;56625;54.322;18.582;2024-02-15T13:51:01;100990.20;;;11.20
69435;BMP180;56625;54.322;18.582;2024-02-15T13:53:30;100994.00;;;11.20
69435;BMP180;56625;54.322;18.582;2024-02-15T13:55:58;100994.40;;;11.10
69435;BMP180;56625;54.322;18.582;2024-02-15T13:58:26;100992.60;;;11.10
69435;BMP180;56625;54.322;18.582;2024-02-15T14:00:54;100994.80;;;11.08
69435;BMP180;56625;54.322;18.582;2024-02-15T14:03:25;100996.20;;;11.00
69435;BMP180;56625;54.322;18.582;2024-02-15T14:05:54;100995.00;;;11.00
69435;BMP180;56625;54.322;18.582;2024-02-15T14:08:22;100990.80;;;11.00
69435;BMP180;56625;54.322;18.582;2024-02-15T14:10:50;100988.60;;;11.00
69435;BMP180;56625;54.322;18.582;2024-02-15T14:13:19;100986.80;;;11.00
69435;BMP180;56625;54.322;18.582;2024-02-15T14:15:49;100992.40;;;11.00
69435;BMP180;56625;54.322;18.582;2024-02-15T14:18:19;100992.00;;;11.00
69435;BMP180;56625;54.322;18.582;2024-02-15T14:20:50;100992.40;;;11.00
69435;BMP180;56625;54.322;18.582;2024-02-15T14:23:19;100997.20;;;11.00
69435;BMP180;56625;54.322;18.582;2024-02-15T14:25:47;100999.00;;;10.98
69435;BMP180;56625;54.322;18.582;2024-02-15T14:28:17;101000.80;;;10.90